createdAt,value
2022-11-24T00:01:17.823Z,24.75
2022-11-24T00:03:52.350Z,26.90
2022-11-24T00:06:19.226Z,16.95
2022-11-24T00:08:46.950Z,25.70
2022-11-24T00:11:21.596Z,24.80
2022-11-24T00:13:50.786Z,28.33
2022-11-24T00:16:24.752Z,15.75
2022-11-24T00:18:53.990Z,24.48
2022-11-24T00:21:23.271Z,24.20
2022-11-24T00:23:51.167Z,27.23
2022-11-24T00:26:34.598Z,23.92
2022-11-24T00:29:05.753Z,24.67
2022-11-24T00:31:39.106Z,23.02
2022-11-24T00:34:11.859Z,26.88
2022-11-24T00:36:41.088Z,27.42
2022-11-24T00:39:12.397Z,36.28
2022-11-24T00:41:39.793Z,28.60
2022-11-24T00:44:08.251Z,22.90
2022-11-24T00:46:36.321Z,32.53
2022-11-24T00:49:03.704Z,26.20
2022-11-24T00:51:30.858Z,26.55
2022-11-24T00:53:59.174Z,21.75
2022-11-24T00:56:27.171Z,25.15
2022-11-24T00:58:55.279Z,22.52
2022-11-24T01:01:24.833Z,27.88
2022-11-24T01:03:55.353Z,30.83
2022-11-24T01:06:25.049Z,31.73
2022-11-24T01:08:52.686Z,27.27
2022-11-24T01:11:24.041Z,24.95
2022-11-24T01:13:57.730Z,35.72
2022-11-24T01:16:35.168Z,26.73
2022-11-24T01:19:03.950Z,26.42
2022-11-24T01:21:30.901Z,37.42
2022-11-24T01:23:58.809Z,34.70
2022-11-24T01:26:25.619Z,38.33
2022-11-24T01:28:54.835Z,27.77
2022-11-24T01:31:22.582Z,32.83
2022-11-24T01:33:49.536Z,35.38
2022-11-24T01:36:16.815Z,40.75
2022-11-24T01:38:43.684Z,25.08
2022-11-24T01:41:24.554Z,33.65
2022-11-24T01:43:54.111Z,26.40
2022-11-24T01:46:42.116Z,30.17
2022-11-24T01:49:09.132Z,21.55
2022-11-24T01:51:57.933Z,37.40
2022-11-24T01:54:32.918Z,27.58
2022-11-24T01:57:16.741Z,26.95
2022-11-24T01:59:46.552Z,28.50
2022-11-24T02:04:45.170Z,30.85
2022-11-24T02:07:13.859Z,20.25
2022-11-24T02:09:56.515Z,37.20
2022-11-24T02:12:26.689Z,31.92
2022-11-24T02:14:55.988Z,33.60
2022-11-24T02:17:23.178Z,34.53
2022-11-24T02:19:57.457Z,38.88
2022-11-24T02:22:55.022Z,25.67
2022-11-24T02:25:26.120Z,24.45
2022-11-24T02:27:55.971Z,30.35
2022-11-24T02:30:22.974Z,23.05
2022-11-24T02:32:52.395Z,30.63
2022-11-24T02:35:19.978Z,33.70
2022-11-24T02:37:46.874Z,28.23
2022-11-24T02:40:24.776Z,20.67
2022-11-24T02:42:55.299Z,22.90
2022-11-24T02:45:23.544Z,33.92
2022-11-24T02:47:50.511Z,32.65
2022-11-24T02:50:17.495Z,37.45
2022-11-24T02:52:45.372Z,31.73
2022-11-24T02:55:12.247Z,26.17
2022-11-24T02:57:40.099Z,17.20
2022-11-24T03:00:07.761Z,31.90
2022-11-24T03:02:34.746Z,29.95
2022-11-24T03:05:01.806Z,25.50
2022-11-24T03:07:28.863Z,28.30
2022-11-24T03:09:55.813Z,31.85
2022-11-24T03:12:23.695Z,29.95
2022-11-24T03:14:50.531Z,24.45
2022-11-24T03:17:18.827Z,24.85
2022-11-24T03:19:45.965Z,12.32
2022-11-24T03:22:14.591Z,17.83
2022-11-24T03:24:41.683Z,19.55
2022-11-24T03:27:09.552Z,18.38
2022-11-24T03:29:36.418Z,12.88
2022-11-24T03:32:05.127Z,9.65
2022-11-24T03:34:32.226Z,11.00
2022-11-24T03:37:01.335Z,8.95
2022-11-24T03:39:29.164Z,15.90
2022-11-24T03:41:55.986Z,12.05
2022-11-24T03:44:23.348Z,14.75
2022-11-24T03:46:52.026Z,12.30
2022-11-24T03:49:18.804Z,12.15
2022-11-24T03:51:46.826Z,15.27
2022-11-24T03:54:13.707Z,9.25
2022-11-24T03:56:40.626Z,12.15
2022-11-24T03:59:07.573Z,11.15
2022-11-24T04:01:34.963Z,12.57
2022-11-24T04:04:01.855Z,12.77
2022-11-24T04:06:29.696Z,7.35
2022-11-24T04:08:56.768Z,11.98
2022-11-24T04:11:42.714Z,9.02
2022-11-24T04:14:13.696Z,10.13
2022-11-24T04:16:42.005Z,6.50
2022-11-24T04:19:09.245Z,5.45
2022-11-24T04:21:37.153Z,7.93
2022-11-24T04:24:07.095Z,9.40
2022-11-24T04:26:35.030Z,8.73
2022-11-24T04:29:01.865Z,6.82
2022-11-24T04:31:31.851Z,5.05
2022-11-24T04:33:59.173Z,5.38
2022-11-24T04:36:26.172Z,4.03
2022-11-24T04:39:23.848Z,5.40
2022-11-24T04:41:40.979Z,6.82
2022-11-24T04:44:07.778Z,3.80
2022-11-24T04:46:36.257Z,6.05
2022-11-24T04:49:03.093Z,6.35
2022-11-24T04:51:29.992Z,5.88
2022-11-24T04:53:57.282Z,5.00
2022-11-24T04:56:24.346Z,6.10
2022-11-24T04:58:51.138Z,6.50
2022-11-24T05:01:19.038Z,3.72
2022-11-24T05:03:45.937Z,6.88
2022-11-24T05:06:12.871Z,4.80
2022-11-24T05:08:39.680Z,3.42
2022-11-24T05:11:07.420Z,7.05
2022-11-24T05:13:34.492Z,4.10
2022-11-24T05:16:26.925Z,3.80
2022-11-24T05:18:55.372Z,3.15
2022-11-24T05:21:22.198Z,6.28
2022-11-24T05:23:49.156Z,6.13
2022-11-24T05:26:19.135Z,3.10
2022-11-24T05:28:46.106Z,3.88
2022-11-24T05:31:12.874Z,6.82
2022-11-24T05:33:40.060Z,6.63
2022-11-24T05:36:30.215Z,2.40
2022-11-24T05:38:58.124Z,7.22
2022-11-24T05:41:26.382Z,9.82
2022-11-24T05:43:53.254Z,8.63
2022-11-24T05:46:22.302Z,10.45
2022-11-24T05:48:49.496Z,6.78
2022-11-24T05:51:18.577Z,12.18
2022-11-24T05:53:45.522Z,10.07
2022-11-24T05:56:12.339Z,12.07
2022-11-24T05:58:39.210Z,10.20
2022-11-24T06:01:07.268Z,14.38
2022-11-24T06:03:38.040Z,15.35
2022-11-24T06:06:07.370Z,17.15
2022-11-24T06:08:36.217Z,15.20
2022-11-24T06:11:17.739Z,12.15
2022-11-24T06:13:46.401Z,22.98
2022-11-24T06:16:13.683Z,11.68
2022-11-24T06:18:40.684Z,16.33
2022-11-24T06:21:11.994Z,15.30
2022-11-24T06:23:41.241Z,12.98
2022-11-24T06:26:09.214Z,18.08
2022-11-24T06:28:36.409Z,22.30
2022-11-24T06:31:05.058Z,13.13
2022-11-24T06:33:36.948Z,16.45
2022-11-24T06:36:06.228Z,21.67
2022-11-24T06:38:35.940Z,19.13
2022-11-24T06:41:07.919Z,20.15
2022-11-24T06:43:35.948Z,16.88
2022-11-24T06:46:03.971Z,19.70
2022-11-24T06:48:32.621Z,11.88
2022-11-24T06:51:01.092Z,19.55
2022-11-24T06:53:32.410Z,20.05
2022-11-24T06:56:02.871Z,16.17
2022-11-24T06:58:30.995Z,12.88
2022-11-24T07:01:01.000Z,16.55
2022-11-24T07:03:28.985Z,10.65
2022-11-24T07:05:57.918Z,14.07
2022-11-24T07:08:25.828Z,12.60
2022-11-24T07:10:55.219Z,18.13
2022-11-24T07:13:22.359Z,14.75
2022-11-24T07:16:45.766Z,13.30
2022-11-24T07:19:13.330Z,15.50
2022-11-24T07:21:40.160Z,27.40
2022-11-24T07:24:08.904Z,22.20
2022-11-24T07:26:37.892Z,12.13
2022-11-24T07:29:05.472Z,15.32
2022-11-24T07:31:32.371Z,14.00
2022-11-24T07:34:00.286Z,11.52
2022-11-24T07:36:27.286Z,9.02
2022-11-24T07:38:55.179Z,13.57
2022-11-24T07:41:23.132Z,13.35
2022-11-24T07:43:56.004Z,8.63
2022-11-24T07:46:24.115Z,13.68
2022-11-24T07:48:51.438Z,14.15
2022-11-24T07:51:19.404Z,6.63
2022-11-24T07:53:48.379Z,14.27
2022-11-24T07:56:15.406Z,15.07
2022-11-24T07:58:45.974Z,6.05
2022-11-24T08:01:18.205Z,7.05
2022-11-24T08:03:47.895Z,11.80
2022-11-24T08:06:27.363Z,17.15
2022-11-24T08:08:58.088Z,17.02
2022-11-24T08:11:27.337Z,15.82
2022-11-24T08:13:54.200Z,10.48
2022-11-24T08:16:22.757Z,11.90
2022-11-24T08:18:51.586Z,6.78
2022-11-24T08:21:18.850Z,15.98
2022-11-24T08:23:47.671Z,12.35
2022-11-24T08:26:18.968Z,16.70
2022-11-24T08:28:47.237Z,12.73
2022-11-24T08:31:18.768Z,17.15
2022-11-24T08:33:46.772Z,9.10
2022-11-24T08:36:16.876Z,16.48
2022-11-24T08:38:44.888Z,20.30
2022-11-24T08:41:17.259Z,13.77
2022-11-24T08:43:44.301Z,14.93
2022-11-24T08:46:13.685Z,18.40
2022-11-24T08:48:41.676Z,13.07
2022-11-24T08:51:16.108Z,16.00
2022-11-24T08:53:43.872Z,12.32
2022-11-24T08:56:13.413Z,12.77
2022-11-24T08:58:41.898Z,6.88
2022-11-24T09:01:18.318Z,13.32
2022-11-24T09:03:50.725Z,15.27
2022-11-24T09:06:25.592Z,15.38
2022-11-24T09:08:54.566Z,14.23
2022-11-24T09:11:21.881Z,14.85
2022-11-24T09:13:48.919Z,21.55
2022-11-24T09:16:21.621Z,27.67
2022-11-24T09:18:54.585Z,18.90
2022-11-24T09:21:22.328Z,20.20
2022-11-24T09:23:53.238Z,17.50
2022-11-24T09:26:27.920Z,19.02
2022-11-24T09:28:56.384Z,20.67
2022-11-24T09:31:30.029Z,11.80
2022-11-24T09:33:57.930Z,15.75
2022-11-24T09:36:26.311Z,21.10
2022-11-24T09:38:53.686Z,18.58
2022-11-24T09:41:39.895Z,29.80
2022-11-24T09:44:27.969Z,14.45
2022-11-24T09:47:16.837Z,16.80
2022-11-24T09:50:21.672Z,18.42
2022-11-24T09:53:01.547Z,17.13
2022-11-24T09:55:52.211Z,19.02
2022-11-24T09:58:31.238Z,14.02
2022-11-24T10:01:04.461Z,17.77
2022-11-24T10:03:37.632Z,12.18
2022-11-24T10:06:16.864Z,21.15
2022-11-24T10:08:58.875Z,18.58
2022-11-24T10:11:47.165Z,16.10
2022-11-24T10:14:41.250Z,17.20
2022-11-24T10:17:36.485Z,17.80
2022-11-24T10:20:13.400Z,19.25
2022-11-24T10:23:01.435Z,12.65
2022-11-24T10:25:59.669Z,16.65
2022-11-24T10:28:38.124Z,18.73
2022-11-24T10:31:31.596Z,19.90
2022-11-24T10:34:09.781Z,16.90
2022-11-24T10:36:48.303Z,16.98
2022-11-24T10:39:29.614Z,17.25
2022-11-24T10:42:19.675Z,15.85
2022-11-24T10:44:46.630Z,16.92
2022-11-24T10:47:22.822Z,16.58
2022-11-24T10:50:12.337Z,16.83
2022-11-24T10:52:52.819Z,21.13
2022-11-24T10:55:21.599Z,11.32
2022-11-24T10:57:48.857Z,18.25
2022-11-24T11:00:18.890Z,21.90
2022-11-24T11:02:47.845Z,16.75
2022-11-24T11:05:42.223Z,19.23
2022-11-24T11:08:24.737Z,20.02
2022-11-24T11:11:15.129Z,19.48
2022-11-24T11:14:03.118Z,15.52
2022-11-24T11:16:38.639Z,23.48
2022-11-24T11:22:29.772Z,16.35
2022-11-24T11:25:27.971Z,21.60
2022-11-24T11:28:18.875Z,13.52
2022-11-24T11:31:17.976Z,18.65
2022-11-24T11:34:20.860Z,19.67
2022-11-24T11:36:54.801Z,17.98
2022-11-24T11:39:21.606Z,18.08
2022-11-24T11:41:52.076Z,11.85
2022-11-24T11:44:38.525Z,12.80
2022-11-24T11:47:27.025Z,13.68
2022-11-24T11:49:54.409Z,8.40
2022-11-24T11:52:33.142Z,14.75
2022-11-24T11:55:34.240Z,18.02
2022-11-24T11:58:18.097Z,14.60
2022-11-24T12:00:56.737Z,15.85
2022-11-24T12:03:39.901Z,15.70
2022-11-24T12:06:51.876Z,20.08
2022-11-24T12:09:48.317Z,14.18
2022-11-24T12:12:26.255Z,14.82
2022-11-24T12:15:10.984Z,16.50
2022-11-24T12:17:47.962Z,18.83
2022-11-24T12:20:37.455Z,19.02
2022-11-24T12:23:43.009Z,16.02
2022-11-24T12:26:37.434Z,9.02
2022-11-24T12:29:28.638Z,13.98
2022-11-24T12:32:04.459Z,25.98
2022-11-24T12:34:52.103Z,19.08
2022-11-24T12:37:43.812Z,16.13
2022-11-24T12:40:16.337Z,12.40
2022-11-24T12:42:55.520Z,17.92
2022-11-24T12:45:52.756Z,25.48
2022-11-24T12:48:23.693Z,16.45
2022-11-24T12:50:53.667Z,19.38
2022-11-24T12:53:32.792Z,23.38
2022-11-24T12:56:06.443Z,19.70
2022-11-24T12:58:43.188Z,20.95
2022-11-24T13:01:33.774Z,24.85
2022-11-24T13:04:21.929Z,10.50
2022-11-24T13:07:41.316Z,15.90
2022-11-24T13:13:18.256Z,26.85
2022-11-24T13:19:01.396Z,10.75
2022-11-24T13:21:45.612Z,22.52
2022-11-24T13:24:19.479Z,18.60
2022-11-24T13:27:24.729Z,11.88
2022-11-24T13:29:52.312Z,16.98
2022-11-24T13:32:19.140Z,18.88
2022-11-24T13:35:02.261Z,22.65
2022-11-24T13:37:35.395Z,23.67
2022-11-24T13:40:22.980Z,21.90
2022-11-24T13:42:56.371Z,19.73
2022-11-24T13:45:52.542Z,31.90
2022-11-24T13:48:19.571Z,20.35
2022-11-24T13:50:58.680Z,15.07
2022-11-24T13:53:33.576Z,25.92
2022-11-24T13:56:13.910Z,22.77
2022-11-24T13:58:46.495Z,20.42
2022-11-24T14:01:26.692Z,16.15
2022-11-24T14:04:30.529Z,19.50
2022-11-24T14:07:09.070Z,15.82
2022-11-24T14:09:51.240Z,22.95
2022-11-24T14:12:25.626Z,22.85
2022-11-24T14:14:57.151Z,26.55
2022-11-24T14:17:25.093Z,25.70
2022-11-24T14:19:55.544Z,21.88
2022-11-24T14:22:41.529Z,26.65
2022-11-24T14:25:24.275Z,28.15
2022-11-24T14:27:53.851Z,19.60
2022-11-24T14:30:24.006Z,28.15
2022-11-24T14:32:58.723Z,25.08
2022-11-24T14:35:34.374Z,19.85
2022-11-24T14:38:05.896Z,18.30
2022-11-24T14:40:43.339Z,15.45
2022-11-24T14:43:20.026Z,18.25
2022-11-24T14:46:02.418Z,25.98
2022-11-24T14:48:37.793Z,19.90
2022-11-24T14:51:18.156Z,23.52
2022-11-24T14:53:46.922Z,20.50
2022-11-24T14:56:36.728Z,23.05
2022-11-24T14:59:04.959Z,26.55
2022-11-24T15:01:35.274Z,18.10
2022-11-24T15:04:26.522Z,21.83
2022-11-24T15:07:06.025Z,23.65
2022-11-24T15:09:47.958Z,26.50
2022-11-24T15:12:34.449Z,25.40
2022-11-24T15:15:04.583Z,21.08
2022-11-24T15:17:31.859Z,25.52
2022-11-24T15:20:10.840Z,20.33
2022-11-24T15:22:40.803Z,22.30
2022-11-24T15:25:28.386Z,23.92
2022-11-24T15:27:55.657Z,17.00
2022-11-24T15:30:23.096Z,21.60
2022-11-24T15:32:52.850Z,20.80
2022-11-24T15:35:25.961Z,19.10
2022-11-24T15:37:55.485Z,18.70
2022-11-24T15:40:22.623Z,24.85
2022-11-24T15:42:55.301Z,16.45
2022-11-24T15:45:26.565Z,17.90
2022-11-24T15:47:53.538Z,25.98
2022-11-24T15:50:22.206Z,19.00
2022-11-24T15:52:49.276Z,18.05
2022-11-24T15:55:21.909Z,22.80
2022-11-24T16:00:23.706Z,14.00
2022-11-24T16:02:50.660Z,20.52
2022-11-24T16:05:18.364Z,23.45
2022-11-24T16:07:45.235Z,23.17
2022-11-24T16:10:29.454Z,23.40
2022-11-24T16:12:57.429Z,21.63
2022-11-24T16:15:24.649Z,22.02
2022-11-24T16:17:51.586Z,23.40
2022-11-24T16:20:18.839Z,21.83
2022-11-24T16:22:45.696Z,22.05
2022-11-24T16:25:13.217Z,23.90
2022-11-24T16:27:40.259Z,30.70
2022-11-24T16:30:08.504Z,16.52
2022-11-24T16:32:35.455Z,23.42
2022-11-24T16:35:04.038Z,21.13
2022-11-24T16:37:32.516Z,23.52
2022-11-24T16:40:01.508Z,28.52
2022-11-24T16:42:31.749Z,28.55
2022-11-24T16:44:58.700Z,20.15
2022-11-24T16:47:26.520Z,16.83
2022-11-24T16:49:54.478Z,17.50
2022-11-24T16:52:21.478Z,24.10
2022-11-24T16:54:49.364Z,16.75
2022-11-24T16:57:16.315Z,24.92
2022-11-24T16:59:43.538Z,21.27
2022-11-24T17:02:14.193Z,26.88
2022-11-24T17:04:41.288Z,24.98
2022-11-24T17:07:11.357Z,26.65
2022-11-24T17:10:37.018Z,26.70
2022-11-24T17:18:52.994Z,21.92
2022-11-24T17:21:26.239Z,20.88
2022-11-24T17:23:55.387Z,28.35
2022-11-24T17:26:22.597Z,24.48
2022-11-24T17:28:57.099Z,25.40
2022-11-24T17:31:28.115Z,25.25
2022-11-24T17:34:03.552Z,19.40
2022-11-24T17:36:33.103Z,21.83
2022-11-24T17:39:04.500Z,22.85
2022-11-24T17:41:33.283Z,22.83
2022-11-24T17:44:00.497Z,22.33
2022-11-24T17:46:29.202Z,26.15
2022-11-24T17:48:57.620Z,24.75
2022-11-24T17:51:26.357Z,23.63
2022-11-24T17:53:54.707Z,20.05
2022-11-24T17:56:24.257Z,14.23
2022-11-24T17:58:59.663Z,26.02
2022-11-24T18:01:30.117Z,22.45
2022-11-24T18:03:58.763Z,24.30
2022-11-24T18:06:28.761Z,24.60
2022-11-24T18:08:57.218Z,26.48
2022-11-24T18:11:32.177Z,20.45
2022-11-24T18:14:03.537Z,20.65
2022-11-24T18:16:34.157Z,19.42
2022-11-24T18:19:09.066Z,15.40
2022-11-24T18:21:41.613Z,21.27
2022-11-24T18:24:11.266Z,26.65
2022-11-24T18:26:39.424Z,17.90
2022-11-24T18:29:06.486Z,26.17
2022-11-24T18:31:35.535Z,18.23
2022-11-24T18:34:05.489Z,32.60
2022-11-24T18:36:34.309Z,25.88
2022-11-24T18:39:03.636Z,26.83
2022-11-24T18:41:30.782Z,17.83
2022-11-24T18:43:57.846Z,18.30
2022-11-24T18:46:25.157Z,19.70
2022-11-24T18:48:53.143Z,27.65
2022-11-24T18:51:20.284Z,26.73
2022-11-24T18:53:50.925Z,24.85
2022-11-24T18:56:17.858Z,24.52
2022-11-24T18:58:45.959Z,34.60
2022-11-24T19:01:22.157Z,24.13
2022-11-24T19:03:52.337Z,25.20
2022-11-24T19:06:23.885Z,19.48
2022-11-24T19:08:53.527Z,29.35
2022-11-24T19:11:23.939Z,25.17
2022-11-24T19:13:51.508Z,21.55
2022-11-24T19:16:20.371Z,25.45
2022-11-24T19:18:53.618Z,22.60
2022-11-24T19:21:21.972Z,22.17
2022-11-24T19:23:50.241Z,34.72
2022-11-24T19:26:17.391Z,16.55
2022-11-24T19:28:44.445Z,20.98
2022-11-24T19:31:13.163Z,25.23
2022-11-24T19:33:41.013Z,23.00
2022-11-24T19:36:12.919Z,28.50
2022-11-24T19:38:41.097Z,21.65
2022-11-24T19:41:13.895Z,24.80
2022-11-24T19:43:42.669Z,25.15
2022-11-24T19:46:12.296Z,32.70
2022-11-24T19:48:41.536Z,21.90
2022-11-24T19:51:13.168Z,20.08
2022-11-24T19:53:41.610Z,23.98
2022-11-24T19:56:29.871Z,20.65
2022-11-24T19:58:57.989Z,19.60
2022-11-24T20:01:34.101Z,20.33
2022-11-24T20:04:06.975Z,19.77
2022-11-24T20:06:36.893Z,21.42
2022-11-24T20:09:06.092Z,26.90
2022-11-24T20:11:34.343Z,22.75
2022-11-24T20:14:02.006Z,22.60
2022-11-24T20:16:32.100Z,17.63
2022-11-24T20:19:01.471Z,18.65
2022-11-24T20:21:33.050Z,25.30
2022-11-24T20:24:10.765Z,23.23
2022-11-24T20:26:43.415Z,22.20
2022-11-24T20:29:13.376Z,20.20
2022-11-24T20:31:47.126Z,17.55
2022-11-24T20:34:14.856Z,21.00
2022-11-24T20:36:44.804Z,21.33
2022-11-24T20:39:17.076Z,19.73
2022-11-24T20:41:44.483Z,22.50
2022-11-24T20:44:15.572Z,23.42
2022-11-24T20:46:44.258Z,25.70
2022-11-24T20:49:18.608Z,22.10
2022-11-24T20:51:54.339Z,18.08
2022-11-24T20:54:21.950Z,21.90
2022-11-24T20:56:49.121Z,27.67
2022-11-24T20:59:22.110Z,24.35
2022-11-24T21:01:52.020Z,17.90
2022-11-24T21:04:23.451Z,24.48
2022-11-24T21:06:50.798Z,28.35
2022-11-24T21:09:18.075Z,23.55
2022-11-24T21:11:46.684Z,21.98
2022-11-24T21:14:15.094Z,22.50
2022-11-24T21:16:45.177Z,24.60
2022-11-24T21:19:18.647Z,19.75
2022-11-24T21:21:48.748Z,21.60
2022-11-24T21:24:19.331Z,21.90
2022-11-24T21:26:51.734Z,24.48
2022-11-24T21:29:21.850Z,19.65
2022-11-24T21:31:50.070Z,27.17
2022-11-24T21:34:20.821Z,25.83
2022-11-24T21:36:48.102Z,20.98
2022-11-24T21:39:16.059Z,12.05
2022-11-24T21:41:43.663Z,21.80
2022-11-24T21:44:13.495Z,18.13
2022-11-24T21:46:46.138Z,17.58
2022-11-24T21:49:16.649Z,24.40
2022-11-24T21:51:44.724Z,24.95
2022-11-24T21:54:11.704Z,24.00
2022-11-24T21:56:38.554Z,21.77
2022-11-24T21:59:05.695Z,22.83
2022-11-24T22:01:33.665Z,23.60
2022-11-24T22:04:01.733Z,28.00
2022-11-24T22:06:29.597Z,22.23
2022-11-24T22:08:56.511Z,20.40
2022-11-24T22:11:25.075Z,19.27
2022-11-24T22:13:55.857Z,21.08
2022-11-24T22:16:24.286Z,15.18
2022-11-24T22:18:52.774Z,24.88
2022-11-24T22:21:23.836Z,21.65
2022-11-24T22:23:52.753Z,23.15
2022-11-24T22:26:22.011Z,19.48
2022-11-24T22:28:51.276Z,23.23
2022-11-24T22:31:30.847Z,21.77
2022-11-24T22:34:00.273Z,23.95
2022-11-24T22:36:30.504Z,12.18
2022-11-24T22:39:03.282Z,23.98
2022-11-24T22:41:31.994Z,21.60
2022-11-24T22:44:00.174Z,20.42
2022-11-24T22:46:30.761Z,14.32
2022-11-24T22:49:01.928Z,30.67
2022-11-24T22:51:33.455Z,21.23
2022-11-24T22:54:03.543Z,19.70
2022-11-24T22:56:32.598Z,22.38
2022-11-24T22:59:04.611Z,20.50
2022-11-24T23:01:36.529Z,14.88
2022-11-24T23:04:03.916Z,17.40
2022-11-24T23:06:34.399Z,17.90
2022-11-24T23:09:03.616Z,22.88
2022-11-24T23:11:38.216Z,21.88
2022-11-24T23:14:13.475Z,15.77
2022-11-24T23:16:42.285Z,23.42
2022-11-24T23:19:11.248Z,17.23
2022-11-24T23:21:39.585Z,19.52
2022-11-24T23:24:08.564Z,22.25
2022-11-24T23:26:38.711Z,20.25
2022-11-24T23:29:06.807Z,17.98
2022-11-24T23:31:34.279Z,20.52
2022-11-24T23:34:03.876Z,17.75
2022-11-24T23:36:32.723Z,20.63
2022-11-24T23:39:08.597Z,24.17
2022-11-24T23:41:36.670Z,19.65
2022-11-24T23:44:05.067Z,17.80
2022-11-24T23:46:33.774Z,19.60
2022-11-24T23:49:01.681Z,22.48
2022-11-24T23:51:32.077Z,19.17
2022-11-24T23:54:00.848Z,25.80
2022-11-24T23:56:33.050Z,16.60
2022-11-24T23:59:02.561Z,16.73
